createdAt,value
2019-05-03T00:00:05.873Z,99.90
2019-05-03T00:02:28.038Z,99.90
2019-05-03T00:03:43.104Z,99.90
2019-05-03T00:04:48.247Z,99.90
2019-05-03T00:05:54.853Z,99.90
2019-05-03T00:06:59.139Z,99.90
2019-05-03T00:08:05.841Z,99.90
2019-05-03T00:09:11.999Z,99.90
2019-05-03T00:10:16.984Z,99.90
2019-05-03T00:11:22.102Z,99.90
2019-05-03T00:12:26.597Z,99.90
2019-05-03T00:13:32.543Z,99.90
2019-05-03T00:14:38.532Z,99.90
2019-05-03T00:15:54.965Z,99.90
2019-05-03T00:16:59.211Z,99.90
2019-05-03T00:18:03.555Z,99.90
2019-05-03T00:19:07.829Z,99.90
2019-05-03T00:20:12.351Z,99.90
2019-05-03T00:21:16.584Z,99.90
2019-05-03T00:22:21.695Z,99.90
2019-05-03T00:23:26.033Z,99.90
2019-05-03T00:24:31.926Z,99.90
2019-05-03T00:25:36.197Z,99.90
2019-05-03T00:26:42.243Z,99.90
2019-05-03T00:27:46.580Z,99.90
2019-05-03T00:28:52.031Z,99.90
2019-05-03T00:29:56.478Z,99.90
2019-05-03T00:31:01.964Z,99.90
2019-05-03T00:32:06.309Z,99.90
2019-05-03T00:33:11.782Z,99.90
2019-05-03T00:34:19.513Z,99.90
2019-05-03T00:35:42.424Z,99.90
2019-05-03T00:36:54.014Z,99.90
2019-05-03T00:37:59.365Z,99.90
2019-05-03T00:39:18.134Z,99.90
2019-05-03T00:40:28.760Z,99.90
2019-05-03T00:41:32.897Z,99.90
2019-05-03T00:42:37.252Z,99.90
2019-05-03T00:43:42.342Z,99.90
2019-05-03T00:44:46.875Z,99.90
2019-05-03T00:45:51.707Z,99.90
2019-05-03T00:46:56.196Z,99.90
2019-05-03T00:48:01.882Z,99.90
2019-05-03T00:49:06.400Z,99.90
2019-05-03T00:50:12.016Z,99.90
2019-05-03T00:51:16.392Z,99.90
2019-05-03T00:52:22.373Z,99.90
2019-05-03T00:53:26.885Z,99.90
2019-05-03T00:54:31.649Z,99.90
2019-05-03T00:55:36.097Z,99.90
2019-05-03T00:56:43.963Z,99.90
2019-05-03T00:57:46.765Z,99.90
2019-05-03T00:58:54.363Z,99.90
2019-05-03T00:59:58.549Z,99.90
2019-05-03T01:01:03.740Z,99.90
2019-05-03T01:02:07.929Z,99.90
2019-05-03T01:03:12.570Z,99.90
2019-05-03T01:04:17.245Z,99.90
2019-05-03T01:05:22.661Z,99.90
2019-05-03T01:06:27.465Z,99.90
2019-05-03T01:07:32.039Z,99.90
2019-05-03T01:08:36.307Z,99.90
2019-05-03T01:09:42.257Z,99.90
2019-05-03T01:10:46.563Z,99.90
2019-05-03T01:11:52.471Z,99.90
2019-05-03T01:12:56.827Z,99.90
2019-05-03T01:14:02.583Z,99.90
2019-05-03T01:15:09.860Z,99.90
2019-05-03T01:16:16.737Z,99.90
2019-05-03T01:17:22.413Z,99.90
2019-05-03T01:18:26.779Z,99.90
2019-05-03T01:19:32.666Z,99.90
2019-05-03T01:20:36.909Z,99.90
2019-05-03T01:21:42.270Z,99.90
2019-05-03T01:22:46.616Z,99.90
2019-05-03T01:23:52.573Z,99.90
2019-05-03T01:24:56.809Z,99.90
2019-05-03T01:26:02.471Z,99.90
2019-05-03T01:27:06.931Z,99.90
2019-05-03T01:28:12.228Z,99.90
2019-05-03T01:29:16.583Z,99.90
2019-05-03T01:30:22.622Z,99.90
2019-05-03T01:31:27.096Z,99.90
2019-05-03T01:32:32.951Z,99.90
2019-05-03T01:33:37.718Z,99.90
2019-05-03T01:34:41.972Z,99.90
2019-05-03T01:35:46.137Z,99.90
2019-05-03T01:36:51.867Z,99.90
2019-05-03T01:37:56.319Z,99.90
2019-05-03T01:39:02.120Z,99.90
2019-05-03T01:40:07.039Z,99.90
2019-05-03T01:41:12.314Z,99.90
2019-05-03T01:42:16.716Z,99.90
2019-05-03T01:43:22.197Z,99.90
2019-05-03T01:44:26.571Z,99.90
2019-05-03T01:45:31.848Z,99.90
2019-05-03T01:46:36.403Z,99.90
2019-05-03T01:47:50.329Z,99.90
2019-05-03T01:49:23.131Z,99.90
2019-05-03T01:50:35.796Z,99.90
2019-05-03T01:51:59.051Z,99.90
2019-05-03T01:53:03.827Z,99.90
2019-05-03T01:54:08.087Z,99.90
2019-05-03T01:55:15.760Z,99.90
2019-05-03T01:56:19.437Z,99.90
2019-05-03T01:57:23.613Z,99.90
2019-05-03T01:58:27.972Z,99.90
2019-05-03T01:59:32.239Z,99.90
2019-05-03T02:00:36.499Z,99.90
2019-05-03T02:01:48.131Z,99.90
2019-05-03T02:03:01.637Z,99.90
2019-05-03T02:04:14.441Z,99.90
2019-05-03T02:05:42.682Z,99.90
2019-05-03T02:06:46.649Z,99.90
2019-05-03T02:07:51.950Z,99.90
2019-05-03T02:08:56.270Z,99.90
2019-05-03T02:10:02.681Z,99.90
2019-05-03T02:11:06.581Z,99.90
2019-05-03T02:12:12.723Z,99.90
2019-05-03T02:13:17.359Z,99.90
2019-05-03T02:14:22.206Z,99.90
2019-05-03T02:15:26.919Z,99.90
2019-05-03T02:16:32.483Z,99.90
2019-05-03T02:17:36.792Z,99.90
2019-05-03T02:18:42.433Z,99.90
2019-05-03T02:19:46.863Z,99.90
2019-05-03T02:20:52.551Z,99.90
2019-05-03T02:21:57.131Z,99.90
2019-05-03T02:23:02.708Z,99.90
2019-05-03T02:24:07.681Z,99.90
2019-05-03T02:25:12.402Z,99.90
2019-05-03T02:26:17.003Z,99.90
2019-05-03T02:27:22.013Z,99.90
2019-05-03T02:28:26.274Z,99.90
2019-05-03T02:29:32.397Z,99.90
2019-05-03T02:30:36.596Z,99.90
2019-05-03T02:31:43.557Z,99.90
2019-05-03T02:32:46.928Z,99.90
2019-05-03T02:33:53.481Z,99.90
2019-05-03T02:34:57.383Z,99.90
2019-05-03T02:36:03.609Z,99.90
2019-05-03T02:37:07.552Z,99.90
2019-05-03T02:38:13.028Z,99.90
2019-05-03T02:39:19.316Z,99.90
2019-05-03T02:40:24.920Z,99.90
2019-05-03T02:41:29.446Z,99.90
2019-05-03T02:42:35.619Z,99.90
2019-05-03T02:43:46.264Z,99.90
2019-05-03T02:44:50.584Z,99.90
2019-05-03T02:46:12.921Z,99.90
2019-05-03T02:47:37.633Z,99.90
2019-05-03T02:48:51.582Z,99.90
2019-05-03T02:50:07.539Z,99.90
2019-05-03T02:51:11.925Z,99.90
2019-05-03T02:52:36.618Z,99.90
2019-05-03T02:53:40.603Z,99.90
2019-05-03T02:54:46.506Z,99.90
2019-05-03T02:55:51.178Z,99.90
2019-05-03T02:56:55.979Z,99.90
2019-05-03T02:58:00.463Z,99.90
2019-05-03T02:59:06.235Z,99.90
2019-05-03T03:00:16.254Z,99.90
2019-05-03T03:01:19.881Z,99.90
2019-05-03T03:02:26.368Z,99.90
2019-05-03T03:03:32.112Z,99.90
2019-05-03T03:04:36.411Z,99.90
2019-05-03T03:05:40.966Z,99.90
2019-05-03T03:06:48.196Z,99.90
2019-05-03T03:07:55.685Z,99.90
2019-05-03T03:09:00.365Z,99.90
2019-05-03T03:10:06.041Z,99.90
2019-05-03T03:11:10.477Z,99.90
2019-05-03T03:12:16.050Z,99.90
2019-05-03T03:13:22.199Z,99.90
2019-05-03T03:14:27.998Z,99.90
2019-05-03T03:15:36.328Z,99.90
2019-05-03T03:16:42.058Z,99.90
2019-05-03T03:17:47.268Z,99.90
2019-05-03T03:18:55.687Z,99.90
2019-05-03T03:20:01.925Z,99.90
2019-05-03T03:21:11.630Z,99.90
2019-05-03T03:22:17.826Z,99.90
2019-05-03T03:23:26.292Z,99.90
2019-05-03T03:24:35.999Z,99.90
2019-05-03T03:25:46.152Z,99.90
2019-05-03T03:26:51.909Z,99.90
2019-05-03T03:27:59.768Z,99.90
2019-05-03T03:29:06.118Z,99.90
2019-05-03T03:30:31.488Z,99.90
2019-05-03T03:32:08.391Z,99.90
2019-05-03T03:33:17.147Z,99.90
2019-05-03T03:34:21.705Z,99.90
2019-05-03T03:35:29.935Z,99.90
2019-05-03T03:36:54.429Z,99.90
2019-05-03T03:37:46.338Z,99.90
2019-05-03T03:39:11.174Z,99.90
2019-05-03T03:40:18.053Z,99.90
2019-05-03T03:41:24.869Z,99.90
2019-05-03T03:42:30.841Z,99.90
2019-05-03T03:43:35.536Z,99.90
2019-05-03T03:44:40.978Z,99.90
2019-05-03T03:45:46.009Z,99.90
2019-05-03T03:46:50.779Z,99.90
2019-05-03T03:47:56.301Z,99.90
2019-05-03T03:49:01.979Z,99.90
2019-05-03T03:50:06.822Z,99.90
2019-05-03T03:51:12.167Z,99.90
2019-05-03T03:52:17.164Z,99.90
2019-05-03T03:53:26.339Z,99.90
2019-05-03T03:54:35.476Z,99.90
2019-05-03T03:55:45.644Z,99.90
2019-05-03T03:57:03.370Z,99.90
2019-05-03T03:58:01.994Z,99.90
2019-05-03T03:59:06.243Z,99.90
2019-05-03T04:00:10.647Z,99.90
2019-05-03T04:01:15.716Z,99.90
2019-05-03T04:02:20.498Z,99.90
2019-05-03T04:03:25.958Z,99.90
2019-05-03T04:04:31.303Z,99.90
2019-05-03T04:05:36.017Z,99.90
2019-05-03T04:06:46.396Z,99.90
2019-05-03T04:07:49.616Z,99.90
2019-05-03T04:08:56.098Z,99.90
2019-05-03T04:10:00.133Z,99.90
2019-05-03T04:11:06.281Z,99.90
2019-05-03T04:12:10.484Z,99.90
2019-05-03T04:13:16.222Z,99.90
2019-05-03T04:14:30.633Z,99.90
2019-05-03T04:16:00.535Z,99.90
2019-05-03T04:17:26.158Z,99.90
2019-05-03T04:18:55.153Z,99.90
2019-05-03T04:20:00.308Z,99.90
2019-05-03T04:21:05.530Z,99.90
2019-05-03T04:22:10.099Z,99.90
2019-05-03T04:23:16.313Z,99.90
2019-05-03T04:24:20.771Z,99.90
2019-05-03T04:25:26.197Z,99.90
2019-05-03T04:26:31.168Z,99.90
2019-05-03T04:27:36.424Z,99.90
2019-05-03T04:28:45.227Z,99.90
2019-05-03T04:29:48.764Z,99.90
2019-05-03T04:30:55.327Z,99.90
2019-05-03T04:31:59.072Z,99.90
2019-05-03T04:33:05.945Z,99.90
2019-05-03T04:34:09.525Z,99.90
2019-05-03T04:35:16.515Z,99.90
2019-05-03T04:36:20.100Z,99.90
2019-05-03T04:37:26.705Z,99.90
2019-05-03T04:38:30.479Z,99.90
2019-05-03T04:39:36.006Z,99.90
2019-05-03T04:40:40.779Z,99.90
2019-05-03T04:41:45.417Z,99.90
2019-05-03T04:42:50.343Z,99.90
2019-05-03T04:43:55.360Z,99.90
2019-05-03T04:45:00.037Z,99.90
2019-05-03T04:46:11.009Z,99.90
2019-05-03T04:47:15.820Z,99.90
2019-05-03T04:48:20.290Z,99.90
2019-05-03T04:49:26.096Z,99.90
2019-05-03T04:50:30.697Z,99.90
2019-05-03T04:51:35.116Z,99.90
2019-05-03T04:52:39.626Z,99.90
2019-05-03T04:53:47.803Z,99.90
2019-05-03T04:54:57.434Z,99.90
2019-05-03T04:56:01.646Z,99.90
2019-05-03T04:57:06.614Z,99.90
2019-05-03T04:58:11.104Z,99.90
2019-05-03T04:59:18.151Z,99.90
2019-05-03T05:00:25.730Z,99.90
2019-05-03T05:01:28.981Z,99.90
2019-05-03T05:02:35.399Z,99.90
2019-05-03T05:03:39.620Z,99.90
2019-05-03T05:04:46.244Z,99.90
2019-05-03T05:05:50.020Z,99.90
2019-05-03T05:06:55.523Z,99.90
2019-05-03T05:07:59.901Z,99.90
2019-05-03T05:09:05.981Z,99.90
2019-05-03T05:10:10.521Z,99.90
2019-05-03T05:11:15.710Z,99.90
2019-05-03T05:12:20.384Z,99.90
2019-05-03T05:13:25.086Z,99.90
2019-05-03T05:14:29.433Z,99.90
2019-05-03T05:15:35.346Z,99.90
2019-05-03T05:16:39.979Z,99.90
2019-05-03T05:18:06.342Z,99.90
2019-05-03T05:19:15.160Z,99.90
2019-05-03T05:20:35.291Z,99.90
2019-05-03T05:21:44.723Z,99.90
2019-05-03T05:22:49.285Z,99.90
2019-05-03T05:24:01.346Z,99.90
2019-05-03T05:25:08.899Z,99.90
2019-05-03T05:26:18.224Z,99.90
2019-05-03T05:27:48.802Z,99.90
2019-05-03T05:28:52.463Z,99.90
2019-05-03T05:29:57.535Z,99.90
2019-05-03T05:31:01.782Z,99.90
2019-05-03T05:32:06.064Z,99.90
2019-05-03T05:33:20.907Z,99.90
2019-05-03T05:34:25.150Z,99.90
2019-05-03T05:35:29.511Z,99.90
2019-05-03T05:36:34.723Z,99.90
2019-05-03T05:37:39.296Z,99.90
2019-05-03T05:38:45.031Z,99.90
2019-05-03T05:39:49.846Z,99.90
2019-05-03T05:40:55.465Z,99.90
2019-05-03T05:41:59.968Z,99.90
2019-05-03T05:43:04.906Z,99.90
2019-05-03T05:44:09.519Z,99.90
2019-05-03T05:45:15.338Z,99.90
2019-05-03T05:46:21.831Z,99.90
2019-05-03T05:47:51.334Z,99.90
2019-05-03T05:48:56.266Z,99.90
2019-05-03T05:50:12.665Z,99.90
2019-05-03T05:51:16.887Z,99.90
2019-05-03T05:52:21.243Z,99.90
2019-05-03T05:53:25.509Z,99.90
2019-05-03T05:54:29.773Z,99.90
2019-05-03T05:55:47.707Z,99.90
2019-05-03T05:57:08.491Z,99.90
2019-05-03T05:58:19.514Z,99.90
2019-05-03T05:59:49.045Z,99.90
2019-05-03T06:01:02.772Z,99.90
2019-05-03T06:02:08.286Z,99.90
2019-05-03T06:03:12.603Z,99.90
2019-05-03T06:04:16.871Z,99.90
2019-05-03T06:05:21.312Z,99.90
2019-05-03T06:06:45.206Z,99.90
2019-05-03T06:08:18.274Z,99.90
2019-05-03T06:09:35.779Z,99.90
2019-05-03T06:10:55.414Z,99.90
2019-05-03T06:12:05.361Z,99.90
2019-05-03T06:13:16.567Z,99.90
2019-05-03T06:14:34.692Z,99.90
2019-05-03T06:15:50.070Z,99.90
2019-05-03T06:17:11.863Z,99.90
2019-05-03T06:18:20.997Z,99.90
2019-05-03T06:19:34.419Z,99.90
2019-05-03T06:20:46.765Z,99.90
2019-05-03T06:22:05.887Z,99.90
2019-05-03T06:23:15.303Z,99.90
2019-05-03T06:24:25.336Z,99.90
2019-05-03T06:25:35.354Z,99.90
2019-05-03T06:26:44.771Z,99.90
2019-05-03T06:27:49.104Z,99.90
2019-05-03T06:28:54.482Z,99.90
2019-05-03T06:30:04.705Z,99.90
2019-05-03T06:31:37.188Z,99.90
2019-05-03T06:32:41.883Z,99.90
2019-05-03T06:33:46.120Z,99.90
2019-05-03T06:34:50.451Z,99.90
2019-05-03T06:35:54.755Z,99.90
2019-05-03T06:37:01.782Z,99.90
2019-05-03T06:38:06.081Z,99.90
2019-05-03T06:39:10.265Z,99.90
2019-05-03T06:40:15.544Z,99.90
2019-05-03T06:41:19.695Z,99.90
2019-05-03T06:42:25.485Z,99.90
2019-05-03T06:43:30.143Z,99.90
2019-05-03T06:44:34.970Z,99.90
2019-05-03T06:45:41.132Z,99.90
2019-05-03T06:46:46.715Z,99.90
2019-05-03T06:47:51.509Z,99.90
2019-05-03T06:48:55.785Z,99.90
2019-05-03T06:49:59.953Z,99.90
2019-05-03T06:51:08.673Z,99.90
2019-05-03T06:52:10.106Z,99.90
2019-05-03T06:53:15.513Z,99.90
2019-05-03T06:54:20.827Z,99.90
2019-05-03T06:55:25.864Z,99.90
2019-05-03T06:56:30.125Z,99.90
2019-05-03T06:57:35.371Z,99.90
2019-05-03T06:58:39.910Z,99.90
2019-05-03T06:59:49.674Z,99.90
2019-05-03T07:01:12.037Z,99.90
2019-05-03T07:02:47.245Z,99.90
2019-05-03T07:04:10.589Z,99.90
2019-05-03T07:05:25.174Z,99.90
2019-05-03T07:06:57.397Z,99.90
2019-05-03T07:08:25.216Z,99.90
2019-05-03T07:09:48.406Z,99.90
2019-05-03T07:10:55.571Z,99.90
2019-05-03T07:11:59.910Z,99.90
2019-05-03T07:13:05.214Z,99.90
2019-05-03T07:14:11.135Z,99.90
2019-05-03T07:15:15.687Z,99.90
2019-05-03T07:16:20.077Z,99.90
2019-05-03T07:17:24.871Z,99.90
2019-05-03T07:18:29.265Z,99.90
2019-05-03T07:19:35.222Z,99.90
2019-05-03T07:20:46.087Z,99.90
2019-05-03T07:21:50.325Z,99.90
2019-05-03T07:22:55.840Z,99.90
2019-05-03T07:24:00.285Z,99.90
2019-05-03T07:25:04.745Z,99.90
2019-05-03T07:26:09.435Z,99.90
2019-05-03T07:27:15.695Z,99.90
2019-05-03T07:28:20.074Z,99.90
2019-05-03T07:29:25.461Z,99.90
2019-05-03T07:30:30.037Z,99.90
2019-05-03T07:31:35.358Z,99.90
2019-05-03T07:32:41.571Z,99.90
2019-05-03T07:33:45.884Z,99.90
2019-05-03T07:34:50.097Z,99.90
2019-05-03T07:35:54.793Z,99.90
2019-05-03T07:36:59.459Z,99.90
2019-05-03T07:38:05.356Z,99.90
2019-05-03T07:39:09.783Z,99.90
2019-05-03T07:40:14.896Z,99.90
2019-05-03T07:41:19.595Z,99.90
2019-05-03T07:42:25.646Z,99.90
2019-05-03T07:43:30.155Z,99.90
2019-05-03T07:44:34.761Z,99.90
2019-05-03T07:45:39.326Z,99.90
2019-05-03T07:46:45.153Z,99.90
2019-05-03T07:47:49.707Z,99.90
2019-05-03T07:49:00.060Z,99.90
2019-05-03T07:50:05.050Z,99.90
2019-05-03T07:51:09.403Z,99.90
2019-05-03T07:52:14.748Z,99.90
2019-05-03T07:53:19.417Z,99.90
2019-05-03T07:54:24.823Z,99.90
2019-05-03T07:55:47.243Z,99.90
2019-05-03T07:56:56.780Z,99.90
2019-05-03T07:58:02.195Z,99.90
2019-05-03T07:59:07.895Z,99.90
2019-05-03T08:00:14.928Z,99.90
2019-05-03T08:01:31.891Z,99.90
2019-05-03T08:02:36.145Z,99.90
2019-05-03T08:03:40.577Z,99.90
2019-05-03T08:04:44.909Z,99.90
2019-05-03T08:05:49.279Z,99.90
2019-05-03T08:06:54.933Z,99.90
2019-05-03T08:07:59.417Z,99.90
2019-05-03T08:09:05.138Z,99.90
2019-05-03T08:10:09.828Z,99.90
2019-05-03T08:11:14.540Z,99.90
2019-05-03T08:12:18.950Z,99.90
2019-05-03T08:13:25.109Z,99.90
2019-05-03T08:14:29.266Z,99.90
2019-05-03T08:15:34.803Z,99.90
2019-05-03T08:16:39.097Z,99.90
2019-05-03T08:17:44.926Z,99.90
2019-05-03T08:18:49.972Z,99.90
2019-05-03T08:19:55.275Z,99.90
2019-05-03T08:20:59.825Z,99.90
2019-05-03T08:22:04.804Z,99.90
2019-05-03T08:23:09.539Z,99.90
2019-05-03T08:24:14.909Z,99.90
2019-05-03T08:25:19.459Z,99.90
2019-05-03T08:26:25.744Z,99.90
2019-05-03T08:27:29.789Z,99.90
2019-05-03T08:28:34.615Z,99.90
2019-05-03T08:29:39.011Z,99.90
2019-05-03T08:30:56.442Z,99.90
2019-05-03T08:32:24.444Z,99.90
2019-05-03T08:33:47.557Z,99.90
2019-05-03T08:35:11.466Z,99.90
2019-05-03T08:36:15.801Z,99.90
2019-05-03T08:37:29.921Z,99.90
2019-05-03T08:38:34.549Z,99.90
2019-05-03T08:39:38.927Z,99.90
2019-05-03T08:40:45.899Z,99.90
2019-05-03T08:42:01.157Z,99.90
2019-05-03T08:43:05.498Z,99.90
2019-05-03T08:44:09.743Z,99.90
2019-05-03T08:45:14.810Z,99.90
2019-05-03T08:46:19.329Z,99.90
2019-05-03T08:47:24.786Z,99.90
2019-05-03T08:48:29.267Z,99.90
2019-05-03T08:49:34.763Z,99.90
2019-05-03T08:50:39.317Z,99.90
2019-05-03T08:51:44.367Z,99.90
2019-05-03T08:52:48.921Z,99.90
2019-05-03T08:53:55.754Z,99.90
2019-05-03T08:54:59.095Z,99.90
2019-05-03T08:56:05.129Z,99.90
2019-05-03T08:57:09.227Z,99.90
2019-05-03T08:58:15.370Z,99.90
2019-05-03T08:59:28.716Z,99.90
2019-05-03T09:00:27.283Z,99.90
2019-05-03T09:01:31.639Z,99.90
2019-05-03T09:02:36.240Z,99.90
2019-05-03T09:03:40.579Z,99.90
2019-05-03T09:04:46.216Z,99.90
2019-05-03T09:05:50.880Z,99.90
2019-05-03T09:06:55.300Z,99.90
2019-05-03T09:07:59.510Z,99.90
2019-05-03T09:09:07.041Z,99.90
2019-05-03T09:10:35.217Z,99.90
2019-05-03T09:11:39.583Z,99.90
2019-05-03T09:13:03.602Z,99.90
2019-05-03T09:14:08.579Z,99.90
2019-05-03T09:15:12.862Z,99.90
2019-05-03T09:16:17.050Z,99.90
2019-05-03T09:17:21.341Z,99.90
2019-05-03T09:18:25.928Z,99.30
2019-05-03T09:19:30.321Z,99.50
2019-05-03T09:20:35.636Z,98.90
2019-05-03T09:21:39.931Z,97.60
2019-05-03T09:22:45.343Z,97.10
2019-05-03T09:23:49.757Z,98.10
2019-05-03T09:24:54.564Z,98.50
2019-05-03T09:25:59.110Z,99.30
2019-05-03T09:27:05.129Z,99.60
2019-05-03T09:28:09.400Z,98.40
2019-05-03T09:29:14.809Z,96.80
2019-05-03T09:30:19.668Z,95.90
2019-05-03T09:31:24.661Z,94.20
2019-05-03T09:32:29.203Z,91.70
2019-05-03T09:33:35.523Z,91.90
2019-05-03T09:34:39.467Z,91.40
2019-05-03T09:35:45.654Z,90.30
2019-05-03T09:36:49.732Z,88.50
2019-05-03T09:37:55.541Z,90.80
2019-05-03T09:39:00.331Z,91.60
2019-05-03T09:40:04.915Z,92.30
2019-05-03T09:41:09.102Z,91.60
2019-05-03T09:42:14.960Z,91.80
2019-05-03T09:43:19.323Z,90.80
2019-05-03T09:44:24.515Z,89.60
2019-05-03T09:45:28.973Z,89.90
2019-05-03T09:46:35.297Z,91.20
2019-05-03T09:47:39.210Z,91.70
2019-05-03T09:48:45.467Z,91.90
2019-05-03T09:49:49.562Z,90.30
2019-05-03T09:50:55.438Z,91.00
2019-05-03T09:51:59.811Z,92.00
2019-05-03T09:53:05.517Z,91.50
2019-05-03T09:54:25.522Z,92.00
2019-05-03T09:55:36.669Z,91.70
2019-05-03T09:56:59.038Z,89.10
2019-05-03T09:58:05.267Z,89.50
2019-05-03T09:59:09.550Z,90.60
2019-05-03T10:00:16.220Z,87.10
2019-05-03T10:01:20.804Z,87.40
2019-05-03T10:02:25.219Z,89.10
2019-05-03T10:03:29.545Z,88.20
2019-05-03T10:04:33.759Z,87.20
2019-05-03T10:05:38.017Z,89.50
2019-05-03T10:06:42.265Z,90.70
2019-05-03T10:07:46.798Z,89.30
2019-05-03T10:08:50.973Z,86.60
2019-05-03T10:09:55.491Z,86.10
2019-05-03T10:11:12.104Z,87.00
2019-05-03T10:12:19.928Z,88.10
2019-05-03T10:13:27.130Z,88.80
2019-05-03T10:14:30.465Z,88.70
2019-05-03T10:15:42.362Z,87.30
2019-05-03T10:16:55.096Z,87.40
2019-05-03T10:18:00.175Z,89.70
2019-05-03T10:19:04.455Z,86.20
2019-05-03T10:20:11.133Z,86.50
2019-05-03T10:21:15.763Z,88.90
2019-05-03T10:22:25.163Z,90.60
2019-05-03T10:23:39.850Z,89.10
2019-05-03T10:24:45.245Z,90.00
2019-05-03T10:25:49.672Z,88.60
2019-05-03T10:26:55.235Z,87.20
2019-05-03T10:27:59.549Z,90.10
2019-05-03T10:29:05.428Z,89.70
2019-05-03T10:30:13.227Z,88.40
2019-05-03T10:31:15.829Z,86.50
2019-05-03T10:32:35.734Z,84.20
2019-05-03T10:33:44.961Z,82.60
2019-05-03T10:34:57.356Z,82.10
2019-05-03T10:36:01.585Z,83.10
2019-05-03T10:37:07.875Z,83.50
2019-05-03T10:38:12.090Z,81.80
2019-05-03T10:39:16.314Z,81.40
2019-05-03T10:40:26.751Z,81.70
2019-05-03T10:41:31.086Z,80.40
2019-05-03T10:42:35.445Z,80.80
2019-05-03T10:43:39.787Z,80.30
2019-05-03T10:44:44.909Z,80.00
2019-05-03T10:45:49.324Z,79.40
2019-05-03T10:46:53.521Z,80.40
2019-05-03T10:47:58.456Z,81.20
2019-05-03T10:49:02.747Z,83.40
2019-05-03T10:50:07.771Z,84.20
2019-05-03T10:51:12.024Z,84.00
2019-05-03T10:52:16.603Z,83.70
2019-05-03T10:53:26.219Z,81.50
2019-05-03T10:54:30.615Z,82.40
2019-05-03T10:55:35.818Z,82.00
2019-05-03T10:56:55.898Z,82.80
2019-05-03T10:58:10.178Z,82.70
2019-05-03T10:59:14.576Z,82.90
2019-05-03T11:00:42.361Z,81.50
2019-05-03T11:01:35.980Z,82.60
2019-05-03T11:03:01.854Z,82.80
2019-05-03T11:04:06.090Z,81.40
2019-05-03T11:05:10.700Z,81.90
2019-05-03T11:06:15.285Z,83.20
2019-05-03T11:07:19.479Z,82.60
2019-05-03T11:08:23.678Z,82.20
2019-05-03T11:09:27.920Z,80.70
2019-05-03T11:10:32.071Z,79.30
2019-05-03T11:11:36.345Z,79.20
2019-05-03T11:12:40.472Z,79.80
2019-05-03T11:13:44.713Z,81.60
2019-05-03T11:14:48.956Z,79.50
2019-05-03T11:15:54.928Z,81.30
2019-05-03T11:17:00.654Z,81.20
2019-05-03T11:18:05.692Z,78.90
2019-05-03T11:19:09.932Z,79.30
2019-05-03T11:20:28.153Z,79.90
2019-05-03T11:21:30.462Z,77.60
2019-05-03T11:22:29.519Z,75.80
2019-05-03T11:23:34.671Z,75.70
2019-05-03T11:24:38.961Z,75.20
2019-05-03T11:25:45.112Z,76.40
2019-05-03T11:26:50.980Z,77.40
2019-05-03T11:27:55.978Z,77.60
2019-05-03T11:29:00.633Z,76.70
2019-05-03T11:30:06.035Z,79.30
2019-05-03T11:31:28.061Z,78.00
2019-05-03T11:32:44.762Z,78.10
2019-05-03T11:33:49.114Z,77.60
2019-05-03T11:35:12.484Z,78.20
2019-05-03T11:36:26.757Z,76.70
2019-05-03T11:37:45.304Z,76.80
2019-05-03T11:38:49.810Z,77.00
2019-05-03T11:39:55.766Z,72.70
2019-05-03T11:40:59.998Z,72.60
2019-05-03T11:42:04.672Z,71.50
2019-05-03T11:43:09.189Z,72.40
2019-05-03T11:44:31.573Z,68.50
2019-05-03T11:45:35.887Z,69.20
2019-05-03T11:46:40.156Z,70.00
2019-05-03T11:47:45.656Z,70.00
2019-05-03T11:48:50.312Z,68.50
2019-05-03T11:49:54.761Z,66.70
2019-05-03T11:50:59.121Z,67.40
2019-05-03T11:52:03.445Z,68.00
2019-05-03T11:53:07.813Z,68.90
2019-05-03T11:54:12.015Z,69.30
2019-05-03T11:55:16.231Z,69.50
2019-05-03T11:56:20.525Z,70.10
2019-05-03T11:57:26.868Z,70.60
2019-05-03T11:58:31.079Z,69.80
2019-05-03T11:59:35.323Z,69.70
2019-05-03T12:00:40.987Z,69.10
2019-05-03T12:01:55.335Z,70.40
2019-05-03T12:03:11.732Z,71.50
2019-05-03T12:04:15.966Z,73.00
2019-05-03T12:05:27.907Z,72.00
2019-05-03T12:06:32.221Z,74.50
2019-05-03T12:07:40.011Z,73.30
2019-05-03T12:08:44.638Z,73.00
2019-05-03T12:09:48.717Z,75.50
2019-05-03T12:11:00.578Z,76.40
2019-05-03T12:11:59.399Z,72.50
2019-05-03T12:13:08.831Z,74.40
2019-05-03T12:14:15.452Z,75.50
2019-05-03T12:15:19.899Z,74.80
2019-05-03T12:17:00.313Z,71.00
2019-05-03T12:17:34.934Z,71.40
2019-05-03T12:18:48.929Z,72.10
2019-05-03T12:19:47.375Z,73.20
2019-05-03T12:20:51.427Z,72.30
2019-05-03T12:21:57.041Z,70.80
2019-05-03T12:23:02.379Z,69.10
2019-05-03T12:24:08.132Z,69.20
2019-05-03T12:25:13.914Z,70.10
2019-05-03T12:26:19.156Z,71.00
2019-05-03T12:27:24.397Z,69.80
2019-05-03T12:28:28.882Z,70.40
2019-05-03T12:29:35.153Z,70.10
2019-05-03T12:30:39.079Z,69.70
2019-05-03T12:31:45.377Z,67.30
2019-05-03T12:32:49.263Z,67.70
2019-05-03T12:33:55.075Z,66.00
2019-05-03T12:34:59.398Z,65.20
2019-05-03T12:36:05.393Z,66.10
2019-05-03T12:37:09.621Z,68.00
2019-05-03T12:38:16.290Z,65.50
2019-05-03T12:39:26.291Z,67.00
2019-05-03T12:40:25.683Z,64.40
2019-05-03T12:41:29.987Z,63.80
2019-05-03T12:42:35.550Z,65.20
2019-05-03T12:43:39.911Z,64.90
2019-05-03T12:44:46.065Z,63.70
2019-05-03T12:45:49.925Z,64.60
2019-05-03T12:46:54.070Z,63.10
2019-05-03T12:47:58.225Z,64.60
2019-05-03T12:49:05.093Z,64.70
2019-05-03T12:50:08.962Z,65.20
2019-05-03T12:51:15.210Z,64.60
2019-05-03T12:52:19.653Z,67.20
2019-05-03T12:53:24.684Z,65.00
2019-05-03T12:54:29.019Z,66.90
2019-05-03T12:55:35.336Z,67.10
2019-05-03T12:56:39.099Z,64.20
2019-05-03T12:57:43.289Z,61.70
2019-05-03T12:59:16.071Z,61.50
2019-05-03T13:00:38.196Z,60.90
2019-05-03T13:02:10.425Z,62.60
2019-05-03T13:03:18.887Z,62.50
2019-05-03T13:04:25.868Z,63.20
2019-05-03T13:05:30.575Z,62.90
2019-05-03T13:06:37.729Z,62.10
2019-05-03T13:07:46.559Z,62.50
2019-05-03T13:08:50.822Z,63.50
2019-05-03T13:09:54.989Z,65.80
2019-05-03T13:10:59.317Z,64.70
2019-05-03T13:12:05.445Z,65.90
2019-05-03T13:13:09.447Z,66.00
2019-05-03T13:14:15.714Z,67.20
2019-05-03T13:15:20.067Z,66.10
2019-05-03T13:16:24.707Z,67.60
2019-05-03T13:17:38.488Z,67.50
2019-05-03T13:18:42.752Z,68.70
2019-05-03T13:19:46.938Z,69.60
2019-05-03T13:20:51.184Z,68.80
2019-05-03T13:21:55.669Z,67.40
2019-05-03T13:23:00.130Z,68.40
2019-05-03T13:24:05.503Z,68.70
2019-05-03T13:25:10.551Z,70.70
2019-05-03T13:26:15.012Z,70.50
2019-05-03T13:27:19.402Z,70.50
2019-05-03T13:28:25.433Z,69.20
2019-05-03T13:29:29.804Z,68.10
2019-05-03T13:30:34.548Z,67.30
2019-05-03T13:31:39.063Z,67.70
2019-05-03T13:32:45.480Z,66.80
2019-05-03T13:33:49.492Z,66.10
2019-05-03T13:34:55.330Z,65.90
2019-05-03T13:35:59.872Z,64.20
2019-05-03T13:37:04.089Z,64.70
2019-05-03T13:38:08.766Z,64.10
2019-05-03T13:39:14.674Z,63.40
2019-05-03T13:40:18.963Z,62.30
2019-05-03T13:41:25.010Z,63.00
2019-05-03T13:42:29.148Z,64.30
2019-05-03T13:43:34.814Z,65.00
2019-05-03T13:44:39.048Z,63.40
2019-05-03T13:45:44.985Z,64.40
2019-05-03T13:46:49.424Z,62.20
2019-05-03T13:47:55.277Z,61.80
2019-05-03T13:50:15.152Z,61.30
2019-05-03T13:51:19.621Z,58.70
2019-05-03T13:52:25.106Z,58.30
2019-05-03T13:53:29.674Z,59.20
2019-05-03T13:54:35.061Z,60.80
2019-05-03T13:55:39.785Z,61.00
2019-05-03T13:56:44.036Z,61.80
2019-05-03T13:57:48.141Z,60.70
2019-05-03T13:58:52.447Z,60.80
2019-05-03T13:59:56.559Z,61.50
2019-05-03T14:01:00.873Z,60.80
2019-05-03T14:02:15.202Z,60.80
2019-05-03T14:03:11.119Z,62.00
2019-05-03T14:04:15.281Z,63.40
2019-05-03T14:05:19.505Z,63.70
2019-05-03T14:06:24.595Z,65.20
2019-05-03T14:07:28.934Z,64.50
2019-05-03T14:08:35.026Z,59.10
2019-05-03T14:09:39.090Z,59.30
2019-05-03T14:10:45.509Z,59.10
2019-05-03T14:11:49.387Z,59.30
2019-05-03T14:12:54.855Z,59.30
2019-05-03T14:13:59.155Z,59.70
2019-05-03T14:15:05.516Z,60.90
2019-05-03T14:16:09.475Z,61.90
2019-05-03T14:17:14.585Z,63.70
2019-05-03T14:18:19.123Z,63.80
2019-05-03T14:19:29.679Z,63.50
2019-05-03T14:20:51.762Z,62.00
2019-05-03T14:21:57.880Z,58.80
2019-05-03T14:23:02.139Z,58.30
2019-05-03T14:24:09.691Z,58.70
2019-05-03T14:25:15.156Z,59.00
2019-05-03T14:26:19.635Z,57.50